Arminto, Wyoming
Current Conditions -  °F | °C
As of 1:53 PM on Thursday 27 Nov 2014 (Local Time) from KCPR Reporting Station
Few Clouds Few Clouds  
Wind Chill: 52°   Ceiling: Unl
Heat Index: 52°   Visibility: 10mi
Dew Point: 26°   Wind: 23mph
Humidity: 37%   Direction: 230°SW
Pressure: 30.05"   Gusts: NA
Location:  43.18°N, 107.26°W
Report Text: KCPR 272053Z 23020KT 10SM FEW100 11/M03 A3005 RMK AO2 SLP163 T01111033 56010
Loading
Personal Weather Stations






























Interactive Weather Map New forecast layout! Learn more

10-Day Weather Forecast

Advertisements
Track Severe Weather on mobile